createdAt,value
2018-11-03T00:00:15.204Z,82.76
2018-11-03T00:01:15.215Z,82.97
2018-11-03T00:02:15.173Z,82.66
2018-11-03T00:03:15.162Z,82.66
2018-11-03T00:04:15.162Z,82.66
2018-11-03T00:05:15.141Z,82.76
2018-11-03T00:06:15.138Z,83.39
2018-11-03T00:07:15.147Z,82.76
2018-11-03T00:08:15.108Z,82.45
2018-11-03T00:09:15.097Z,82.35
2018-11-03T00:10:15.087Z,82.56
2018-11-03T00:11:15.076Z,82.76
2018-11-03T00:12:15.086Z,82.39
2018-11-03T00:13:15.060Z,82.70
2018-11-03T00:14:15.041Z,82.50
2018-11-03T00:15:15.031Z,82.80
2018-11-03T00:16:15.020Z,82.90
2018-11-03T00:17:15.083Z,82.90
2018-11-03T00:18:14.998Z,82.84
2018-11-03T00:19:14.984Z,82.29
2018-11-03T00:20:14.980Z,82.64
2018-11-03T00:21:14.962Z,82.90
2018-11-03T00:22:14.974Z,82.90
2018-11-03T00:23:14.937Z,82.18
2018-11-03T00:24:14.927Z,82.74
2018-11-03T00:25:14.914Z,82.53
2018-11-03T00:26:14.905Z,82.74
2018-11-03T00:27:14.919Z,82.22
2018-11-03T00:28:14.894Z,82.95
2018-11-03T00:29:14.908Z,83.05
2018-11-03T00:30:14.858Z,83.36
2018-11-03T00:31:14.847Z,83.67
2018-11-03T00:32:14.862Z,83.98
2018-11-03T00:33:14.827Z,84.50
2018-11-03T00:34:14.819Z,83.36
2018-11-03T00:35:14.809Z,83.15
2018-11-03T00:36:14.794Z,82.84
2018-11-03T00:37:14.804Z,82.95
2018-11-03T00:38:14.769Z,83.67
2018-11-03T00:39:14.758Z,83.77
2018-11-03T00:40:14.754Z,83.98
2018-11-03T00:41:14.744Z,84.19
2018-11-03T00:42:14.752Z,84.08
2018-11-03T00:43:14.713Z,83.46
2018-11-03T00:44:14.701Z,84.36
2018-11-03T00:45:14.693Z,83.56
2018-11-03T00:46:14.678Z,82.84
2018-11-03T00:47:14.699Z,82.64
2018-11-03T00:48:14.654Z,82.84
2018-11-03T00:49:14.644Z,82.74
2018-11-03T00:50:14.634Z,82.53
2018-11-03T00:51:14.623Z,83.15
2018-11-03T00:52:14.646Z,83.46
2018-11-03T00:53:14.622Z,83.87
2018-11-03T00:54:14.589Z,84.60
2018-11-03T00:55:14.576Z,84.19
2018-11-03T00:56:14.562Z,84.50
2018-11-03T00:57:14.576Z,84.70
2018-11-03T00:58:14.539Z,84.50
2018-11-03T00:59:14.540Z,84.08
2018-11-03T01:00:14.576Z,84.50
2018-11-03T01:01:14.507Z,83.77
2018-11-03T01:02:14.520Z,83.15
2018-11-03T01:03:14.484Z,82.74
2018-11-03T01:04:14.471Z,82.64
2018-11-03T01:05:14.469Z,82.64
2018-11-03T01:06:14.453Z,82.53
2018-11-03T01:07:14.466Z,82.53
2018-11-03T01:08:14.425Z,82.88
2018-11-03T01:09:14.418Z,82.78
2018-11-03T01:10:14.404Z,83.91
2018-11-03T01:11:14.399Z,83.91
2018-11-03T01:12:14.407Z,83.91
2018-11-03T01:13:14.368Z,83.91
2018-11-03T01:14:14.358Z,84.33
2018-11-03T01:15:14.349Z,84.43
2018-11-03T01:16:14.340Z,84.33
2018-11-03T01:17:14.356Z,83.91
2018-11-03T01:18:14.319Z,84.01
2018-11-03T01:19:14.304Z,83.71
2018-11-03T01:20:14.291Z,84.12
2018-11-03T01:21:14.281Z,83.81
2018-11-03T01:22:14.295Z,84.01
2018-11-03T01:23:14.257Z,84.33
2018-11-03T01:24:14.243Z,84.53
2018-11-03T01:25:14.248Z,84.12
2018-11-03T01:26:14.223Z,83.91
2018-11-03T01:27:14.235Z,84.19
2018-11-03T01:28:14.201Z,83.40
2018-11-03T01:29:14.190Z,83.91
2018-11-03T01:30:14.177Z,83.81
2018-11-03T01:31:14.175Z,83.91
2018-11-03T01:32:14.198Z,84.33
2018-11-03T01:33:14.141Z,83.46
2018-11-03T01:34:14.131Z,84.33
2018-11-03T01:35:14.120Z,84.12
2018-11-03T01:36:14.116Z,83.98
2018-11-03T01:37:14.135Z,84.19
2018-11-03T01:38:14.095Z,84.08
2018-11-03T01:39:14.074Z,84.39
2018-11-03T01:40:14.066Z,83.87
2018-11-03T01:41:14.051Z,84.50
2018-11-03T01:42:14.067Z,84.05
2018-11-03T01:43:14.045Z,83.87
2018-11-03T01:44:14.022Z,84.50
2018-11-03T01:45:14.009Z,84.19
2018-11-03T01:46:13.994Z,84.08
2018-11-03T01:47:14.007Z,83.56
2018-11-03T01:48:13.974Z,84.39
2018-11-03T01:49:13.994Z,83.98
2018-11-03T01:50:13.950Z,84.12
2018-11-03T01:51:13.946Z,84.12
2018-11-03T01:52:13.954Z,83.98
2018-11-03T01:53:13.920Z,84.08
2018-11-03T01:54:13.907Z,83.91
2018-11-03T01:55:13.894Z,84.01
2018-11-03T01:56:13.895Z,84.22
2018-11-03T01:57:13.896Z,83.91
2018-11-03T01:58:13.862Z,84.53
2018-11-03T01:59:13.852Z,84.43
2018-11-03T02:00:13.840Z,84.84
2018-11-03T02:01:13.826Z,84.53
2018-11-03T02:02:13.823Z,84.53
2018-11-03T02:03:13.830Z,84.19
2018-11-03T02:04:13.801Z,84.12
2018-11-03T02:05:13.783Z,84.29
2018-11-03T02:06:13.770Z,84.29
2018-11-03T02:07:13.761Z,84.39
2018-11-03T02:08:13.780Z,83.87
2018-11-03T02:09:13.739Z,84.50
2018-11-03T02:10:13.730Z,83.25
2018-11-03T02:11:13.725Z,83.56
2018-11-03T02:12:13.707Z,83.61
2018-11-03T02:13:13.718Z,83.56
2018-11-03T02:14:13.684Z,83.56
2018-11-03T02:15:13.669Z,84.08
2018-11-03T02:16:13.656Z,84.50
2018-11-03T02:17:13.659Z,83.46
2018-11-03T02:18:13.662Z,83.36
2018-11-03T02:19:13.625Z,84.19
2018-11-03T02:20:13.615Z,84.08
2018-11-03T02:21:13.607Z,84.39
2018-11-03T02:22:13.592Z,83.87
2018-11-03T02:23:13.600Z,83.87
2018-11-03T02:24:13.580Z,83.05
2018-11-03T02:25:13.555Z,83.67
2018-11-03T02:26:13.543Z,83.56
2018-11-03T02:27:13.536Z,84.08
2018-11-03T02:28:13.547Z,84.08
2018-11-03T02:29:13.517Z,83.98
2018-11-03T02:30:13.503Z,84.12
2018-11-03T02:31:13.487Z,83.98
2018-11-03T02:32:13.495Z,84.12
2018-11-03T02:33:13.492Z,83.87
2018-11-03T02:34:13.459Z,83.87
2018-11-03T02:35:13.443Z,83.46
2018-11-03T02:36:13.434Z,83.36
2018-11-03T02:37:13.422Z,83.46
2018-11-03T02:38:13.452Z,84.08
2018-11-03T02:39:13.396Z,83.98
2018-11-03T02:40:13.384Z,84.64
2018-11-03T02:41:13.373Z,84.12
2018-11-03T02:42:13.361Z,84.19
2018-11-03T02:43:13.379Z,83.91
2018-11-03T02:44:13.380Z,83.56
2018-11-03T02:45:13.339Z,83.98
2018-11-03T02:46:13.317Z,83.98
2018-11-03T02:47:13.306Z,83.87
2018-11-03T02:48:13.320Z,84.08
2018-11-03T02:49:13.288Z,83.56
2018-11-03T02:50:13.273Z,83.15
2018-11-03T02:51:13.263Z,82.84
2018-11-03T02:52:13.260Z,82.53
2018-11-03T02:53:13.264Z,82.74
2018-11-03T02:54:13.230Z,82.64
2018-11-03T02:55:13.229Z,84.19
2018-11-03T02:56:13.209Z,83.91
2018-11-03T02:57:13.198Z,84.12
2018-11-03T02:58:13.208Z,83.98
2018-11-03T02:59:13.173Z,83.87
2018-11-03T03:00:13.173Z,83.77
2018-11-03T03:01:13.151Z,84.29
2018-11-03T03:02:13.145Z,84.08
2018-11-03T03:03:13.159Z,84.08
2018-11-03T03:04:13.123Z,83.77
2018-11-03T03:05:13.109Z,84.08
2018-11-03T03:06:13.101Z,84.08
2018-11-03T03:07:13.084Z,83.77
2018-11-03T03:08:13.107Z,84.08
2018-11-03T03:09:13.062Z,84.19
2018-11-03T03:10:13.056Z,84.39
2018-11-03T03:11:13.040Z,83.87
2018-11-03T03:12:13.032Z,84.22
2018-11-03T03:13:13.044Z,84.19
2018-11-03T03:14:13.016Z,83.87
2018-11-03T03:15:13.012Z,83.77
2018-11-03T03:16:12.984Z,83.87
2018-11-03T03:17:12.975Z,83.67
2018-11-03T03:18:12.991Z,83.46
2018-11-03T03:19:12.948Z,84.50
2018-11-03T03:20:12.939Z,84.08
2018-11-03T03:21:12.947Z,84.08
2018-11-03T03:22:12.915Z,83.87
2018-11-03T03:23:12.927Z,84.08
2018-11-03T03:24:12.897Z,84.39
2018-11-03T03:25:12.879Z,83.46
2018-11-03T03:26:12.870Z,82.22
2018-11-03T03:27:12.869Z,82.22
2018-11-03T03:28:12.873Z,82.74
2018-11-03T03:29:13.041Z,83.25
2018-11-03T03:30:12.824Z,83.46
2018-11-03T03:31:12.847Z,84.64
2018-11-03T03:32:12.807Z,83.87
2018-11-03T03:33:12.825Z,83.46
2018-11-03T03:34:12.778Z,83.05
2018-11-03T03:35:12.766Z,82.64
2018-11-03T03:36:12.758Z,82.84
2018-11-03T03:37:12.746Z,82.29
2018-11-03T03:38:12.756Z,82.64
2018-11-03T03:39:12.737Z,82.74
2018-11-03T03:40:12.714Z,82.74
2018-11-03T03:41:12.698Z,82.53
2018-11-03T03:42:12.690Z,82.43
2018-11-03T03:43:12.705Z,81.81
2018-11-03T03:44:12.669Z,82.95
2018-11-03T03:45:12.675Z,82.74
2018-11-03T03:46:12.649Z,82.95
2018-11-03T03:47:12.630Z,82.84
2018-11-03T03:48:12.645Z,82.74
2018-11-03T03:49:12.608Z,81.91
2018-11-03T03:50:12.599Z,81.49
2018-11-03T03:51:12.587Z,81.64
2018-11-03T03:52:12.573Z,81.95
2018-11-03T03:53:12.597Z,81.54
2018-11-03T03:54:12.550Z,81.33
2018-11-03T03:55:12.539Z,81.02
2018-11-03T03:56:12.527Z,81.12
2018-11-03T03:57:12.517Z,80.91
2018-11-03T03:58:12.532Z,80.50
2018-11-03T03:59:12.493Z,79.77
2018-11-03T04:00:12.515Z,80.29
2018-11-03T04:01:12.474Z,80.19
2018-11-03T04:02:12.464Z,80.33
2018-11-03T04:03:12.478Z,80.33
2018-11-03T04:04:12.442Z,80.43
2018-11-03T04:05:12.436Z,80.12
2018-11-03T04:06:12.420Z,80.64
2018-11-03T04:07:12.403Z,81.26
2018-11-03T04:08:12.395Z,81.09
2018-11-03T04:09:12.419Z,81.30
2018-11-03T04:10:12.371Z,81.71
2018-11-03T04:11:12.360Z,81.71
2018-11-03T04:12:12.346Z,81.92
2018-11-03T04:13:12.339Z,83.06
2018-11-03T04:14:12.348Z,83.06
2018-11-03T04:15:12.325Z,83.89
2018-11-03T04:16:12.305Z,82.75
2018-11-03T04:17:12.290Z,81.82
2018-11-03T04:18:12.298Z,81.82
2018-11-03T04:19:12.296Z,81.92
2018-11-03T04:20:12.259Z,82.44
2018-11-03T04:21:12.254Z,83.47
2018-11-03T04:22:12.234Z,83.06
2018-11-03T04:23:12.247Z,83.16
2018-11-03T04:24:12.238Z,84.30
2018-11-03T04:25:12.206Z,82.95
2018-11-03T04:26:12.197Z,83.16
2018-11-03T04:27:12.182Z,83.06
2018-11-03T04:28:12.183Z,82.65
2018-11-03T04:29:12.184Z,82.89
2018-11-03T04:30:12.158Z,82.58
2018-11-03T04:31:12.136Z,82.89
2018-11-03T04:32:12.122Z,82.79
2018-11-03T04:33:12.123Z,83.31
2018-11-03T04:34:12.126Z,82.37
2018-11-03T04:35:12.091Z,82.89
2018-11-03T04:36:12.077Z,83.00
2018-11-03T04:37:12.078Z,82.51
2018-11-03T04:38:12.057Z,82.58
2018-11-03T04:39:12.071Z,83.65
2018-11-03T04:40:12.037Z,84.07
2018-11-03T04:41:12.024Z,84.07
2018-11-03T04:42:12.015Z,84.48
2018-11-03T04:43:12.024Z,84.90
2018-11-03T04:44:12.014Z,85.73
2018-11-03T04:45:12.040Z,85.00
2018-11-03T04:46:11.967Z,84.48
2018-11-03T04:47:11.964Z,85.63
2018-11-03T04:48:11.948Z,85.31
2018-11-03T04:49:11.969Z,85.83
2018-11-03T04:50:11.926Z,85.89
2018-11-03T04:51:11.912Z,85.94
2018-11-03T04:52:11.904Z,84.38
2018-11-03T04:53:11.889Z,84.69
2018-11-03T04:54:11.912Z,84.86
2018-11-03T04:55:12.041Z,86.10
2018-11-03T04:56:11.863Z,86.21
2018-11-03T04:57:11.881Z,84.86
2018-11-03T04:58:11.833Z,84.55
2018-11-03T04:59:11.853Z,84.65
2018-11-03T05:00:11.813Z,84.55
2018-11-03T05:01:11.800Z,84.44
2018-11-03T05:02:11.798Z,84.34
2018-11-03T05:03:11.781Z,84.23
2018-11-03T05:04:11.792Z,84.23
2018-11-03T05:05:11.756Z,84.23
2018-11-03T05:06:11.746Z,84.44
2018-11-03T05:07:11.742Z,84.65
2018-11-03T05:08:11.753Z,84.80
2018-11-03T05:09:11.737Z,84.69
2018-11-03T05:10:11.713Z,84.86
2018-11-03T05:11:11.698Z,84.90
2018-11-03T05:12:11.681Z,85.52
2018-11-03T05:13:11.677Z,85.17
2018-11-03T05:14:11.682Z,85.11
2018-11-03T05:15:11.657Z,84.38
2018-11-03T05:16:11.640Z,84.59
2018-11-03T05:17:11.629Z,84.17
2018-11-03T05:18:11.615Z,84.38
2018-11-03T05:19:11.626Z,84.38
2018-11-03T05:20:11.592Z,84.59
2018-11-03T05:21:11.598Z,84.28
2018-11-03T05:22:11.574Z,84.63
2018-11-03T05:23:11.558Z,83.34
2018-11-03T05:24:11.570Z,83.34
2018-11-03T05:25:11.536Z,82.97
2018-11-03T05:26:11.530Z,83.28
2018-11-03T05:27:11.540Z,82.86
2018-11-03T05:28:11.512Z,83.17
2018-11-03T05:29:11.525Z,83.28
2018-11-03T05:30:11.483Z,82.86
2018-11-03T05:31:11.513Z,84.36
2018-11-03T05:32:11.461Z,86.12
2018-11-03T05:33:11.451Z,85.87
2018-11-03T05:34:11.465Z,84.94
2018-11-03T05:35:11.436Z,83.90
2018-11-03T05:36:11.417Z,82.97
2018-11-03T05:37:11.407Z,83.38
2018-11-03T05:38:11.407Z,82.34
2018-11-03T05:39:11.409Z,82.14
2018-11-03T05:40:11.376Z,83.28
2018-11-03T05:41:11.365Z,82.45
2018-11-03T05:42:11.362Z,84.31
2018-11-03T05:43:11.343Z,84.63
2018-11-03T05:44:11.366Z,84.83
2018-11-03T05:45:11.363Z,84.63
2018-11-03T05:46:11.386Z,84.83
2018-11-03T05:47:11.330Z,84.94
2018-11-03T05:48:11.288Z,85.11
2018-11-03T05:49:11.341Z,84.38
2018-11-03T05:50:11.268Z,83.65
2018-11-03T05:51:11.260Z,82.51
2018-11-03T05:52:11.255Z,82.10
2018-11-03T05:53:11.266Z,81.99
2018-11-03T05:54:11.248Z,81.48
2018-11-03T05:55:11.265Z,80.96
2018-11-03T05:56:11.202Z,80.65
2018-11-03T05:57:11.235Z,80.54
2018-11-03T05:58:11.183Z,79.71
2018-11-03T05:59:11.195Z,80.02
2018-11-03T06:00:11.165Z,79.61
2018-11-03T06:01:11.148Z,79.65
2018-11-03T06:02:11.138Z,80.06
2018-11-03T06:03:11.145Z,79.96
2018-11-03T06:04:11.116Z,79.55
2018-11-03T06:05:11.131Z,79.24
2018-11-03T06:06:11.093Z,79.03
2018-11-03T06:07:11.083Z,79.13
2018-11-03T06:08:11.072Z,79.38
2018-11-03T06:09:11.090Z,79.34
2018-11-03T06:10:11.054Z,78.44
2018-11-03T06:11:11.039Z,78.44
2018-11-03T06:12:11.028Z,79.17
2018-11-03T06:13:11.018Z,79.38
2018-11-03T06:14:11.009Z,78.55
2018-11-03T06:15:11.031Z,78.34
2018-11-03T06:16:10.988Z,77.92
2018-11-03T06:17:10.974Z,78.23
2018-11-03T06:18:10.965Z,78.13
2018-11-03T06:19:10.955Z,78.13
2018-11-03T06:20:10.966Z,77.82
2018-11-03T06:21:10.939Z,78.03
2018-11-03T06:22:10.920Z,77.75
2018-11-03T06:23:10.984Z,78.06
2018-11-03T06:24:10.898Z,78.37
2018-11-03T06:25:10.915Z,78.16
2018-11-03T06:26:10.873Z,78.89
2018-11-03T06:27:10.865Z,79.03
2018-11-03T06:28:10.924Z,78.41
2018-11-03T06:29:10.845Z,79.24
2018-11-03T06:30:10.852Z,80.07
2018-11-03T06:31:10.820Z,80.07
2018-11-03T06:32:10.818Z,80.14
2018-11-03T06:33:10.795Z,80.04
2018-11-03T06:34:10.786Z,79.93
2018-11-03T06:35:10.901Z,79.20
2018-11-03T06:36:10.786Z,79.58
2018-11-03T06:37:10.756Z,79.38
2018-11-03T06:38:10.742Z,78.65
2018-11-03T06:39:10.749Z,78.86
2018-11-03T06:40:10.745Z,78.44
2018-11-03T06:41:10.709Z,78.65
2018-11-03T06:42:10.708Z,78.44
2018-11-03T06:43:10.692Z,79.17
2018-11-03T06:44:10.686Z,78.96
2018-11-03T06:45:10.725Z,80.00
2018-11-03T06:46:10.655Z,79.96
2018-11-03T06:47:10.678Z,80.10
2018-11-03T06:48:10.631Z,79.75
2018-11-03T06:49:10.622Z,80.27
2018-11-03T06:50:10.643Z,79.85
2018-11-03T06:51:10.597Z,80.21
2018-11-03T06:52:10.656Z,80.21
2018-11-03T06:53:10.576Z,80.16
2018-11-03T06:54:10.566Z,80.47
2018-11-03T06:55:10.580Z,80.47
2018-11-03T06:56:10.556Z,80.37
2018-11-03T06:57:10.541Z,80.79
2018-11-03T06:58:10.526Z,80.68
2018-11-03T06:59:10.513Z,80.02
2018-11-03T07:00:10.559Z,80.47
2018-11-03T07:01:10.489Z,80.68
2018-11-03T07:02:10.483Z,80.47
2018-11-03T07:03:10.469Z,80.58
2018-11-03T07:04:10.456Z,80.37
2018-11-03T07:05:10.554Z,81.51
2018-11-03T07:06:10.437Z,81.20
2018-11-03T07:07:10.432Z,81.72
2018-11-03T07:08:10.421Z,81.93
2018-11-03T07:09:10.405Z,82.03
2018-11-03T07:10:10.426Z,83.07
2018-11-03T07:11:10.383Z,83.65
2018-11-03T07:12:10.497Z,83.55
2018-11-03T07:13:10.428Z,83.55
2018-11-03T07:14:10.361Z,83.10
2018-11-03T07:15:10.362Z,82.68
2018-11-03T07:16:10.338Z,83.00
2018-11-03T07:17:10.315Z,83.10
2018-11-03T07:18:10.304Z,83.58
2018-11-03T07:19:10.292Z,83.20
2018-11-03T07:20:10.306Z,83.58
2018-11-03T07:21:10.275Z,83.58
2018-11-03T07:22:10.268Z,83.99
2018-11-03T07:23:10.266Z,84.09
2018-11-03T07:24:10.241Z,83.78
2018-11-03T07:25:10.249Z,84.30
2018-11-03T07:26:10.215Z,84.20
2018-11-03T07:27:10.227Z,84.30
2018-11-03T07:28:10.194Z,83.68
2018-11-03T07:29:10.181Z,83.47
2018-11-03T07:30:10.196Z,83.06
2018-11-03T07:31:10.170Z,83.26
2018-11-03T07:32:10.150Z,83.54
2018-11-03T07:33:10.180Z,83.06
2018-11-03T07:34:10.136Z,82.81
2018-11-03T07:35:10.141Z,83.68
2018-11-03T07:36:10.107Z,84.51
2018-11-03T07:37:10.097Z,83.78
2018-11-03T07:38:10.086Z,83.99
2018-11-03T07:39:10.082Z,84.47
2018-11-03T07:40:10.090Z,83.47
2018-11-03T07:41:10.106Z,83.06
2018-11-03T07:42:10.041Z,83.06
2018-11-03T07:43:10.030Z,83.99
2018-11-03T07:44:10.060Z,84.30
2018-11-03T07:45:10.043Z,84.30
2018-11-03T07:46:09.994Z,84.27
2018-11-03T07:47:09.987Z,84.06
2018-11-03T07:48:10.110Z,83.54
2018-11-03T07:49:10.200Z,83.54
2018-11-03T07:50:09.972Z,83.54
2018-11-03T07:51:09.951Z,82.98
2018-11-03T07:52:09.927Z,82.46
2018-11-03T07:53:09.920Z,82.81
2018-11-03T07:54:09.905Z,82.46
2018-11-03T07:55:09.917Z,82.26
2018-11-03T07:56:09.887Z,83.44
2018-11-03T07:57:09.869Z,84.58
2018-11-03T07:58:09.867Z,84.27
2018-11-03T07:59:09.847Z,84.12
2018-11-03T08:00:09.861Z,83.71
2018-11-03T08:01:09.825Z,84.12
2018-11-03T08:02:09.813Z,84.12
2018-11-03T08:03:09.803Z,82.57
2018-11-03T08:04:09.797Z,82.57
2018-11-03T08:05:09.785Z,82.78
2018-11-03T08:06:09.796Z,82.74
2018-11-03T08:07:09.758Z,82.95
2018-11-03T08:08:09.746Z,82.74
2018-11-03T08:09:09.763Z,82.64
2018-11-03T08:10:09.729Z,83.05
2018-11-03T08:11:09.737Z,81.98
2018-11-03T08:12:09.702Z,81.81
2018-11-03T08:13:09.694Z,81.67
2018-11-03T08:14:09.695Z,82.53
2018-11-03T08:15:09.668Z,82.84
2018-11-03T08:16:09.678Z,82.53
2018-11-03T08:17:09.649Z,82.84
2018-11-03T08:18:09.632Z,82.64
2018-11-03T08:19:09.621Z,82.95
2018-11-03T08:20:09.618Z,82.74
2018-11-03T08:21:09.631Z,82.12
2018-11-03T08:22:09.585Z,82.32
2018-11-03T08:23:09.586Z,82.53
2018-11-03T08:24:09.566Z,82.95
2018-11-03T08:25:09.562Z,82.22
2018-11-03T08:26:09.568Z,82.84
2018-11-03T08:27:09.531Z,83.46
2018-11-03T08:28:09.530Z,82.67
2018-11-03T08:29:09.508Z,83.67
2018-11-03T08:30:09.502Z,83.98
2018-11-03T08:31:09.509Z,83.87
2018-11-03T08:32:09.477Z,83.67
2018-11-03T08:33:09.463Z,83.84
2018-11-03T08:34:09.481Z,84.08
2018-11-03T08:35:09.441Z,82.60
2018-11-03T08:36:09.458Z,82.70
2018-11-03T08:37:09.429Z,82.50
2018-11-03T08:38:09.413Z,82.18
2018-11-03T08:39:09.401Z,81.77
2018-11-03T08:40:09.408Z,81.63
2018-11-03T08:41:09.404Z,82.04
2018-11-03T08:42:09.366Z,81.52
2018-11-03T08:43:09.362Z,81.73
2018-11-03T08:44:09.346Z,81.73
2018-11-03T08:45:09.376Z,80.97
2018-11-03T08:46:09.347Z,81.01
2018-11-03T08:47:09.310Z,80.49
2018-11-03T08:48:09.371Z,79.97
2018-11-03T08:49:09.287Z,80.18
2018-11-03T08:50:09.278Z,80.39
2018-11-03T08:51:09.295Z,80.49
2018-11-03T08:52:09.253Z,80.39
2018-11-03T08:53:09.249Z,81.01
2018-11-03T08:54:09.260Z,81.73
2018-11-03T08:55:09.239Z,81.52
2018-11-03T08:56:09.242Z,81.73
2018-11-03T08:57:09.218Z,81.84
2018-11-03T08:58:09.187Z,81.32
2018-11-03T08:59:09.177Z,81.63
2018-11-03T09:00:09.283Z,81.63
2018-11-03T09:01:09.178Z,81.84
2018-11-03T09:02:09.153Z,81.73
2018-11-03T09:03:09.131Z,81.38
2018-11-03T09:04:09.126Z,81.80
2018-11-03T09:05:09.108Z,81.38
2018-11-03T09:06:09.140Z,81.49
2018-11-03T09:07:09.406Z,81.80
2018-11-03T09:08:09.085Z,81.49
2018-11-03T09:09:09.070Z,81.49
2018-11-03T09:10:09.056Z,81.07
2018-11-03T09:11:09.076Z,81.14
2018-11-03T09:12:09.037Z,81.04
2018-11-03T09:13:09.022Z,80.73
2018-11-03T09:14:09.008Z,80.52
2018-11-03T09:15:09.098Z,79.80
2018-11-03T09:16:09.011Z,80.42
2018-11-03T09:17:08.973Z,80.21
2018-11-03T09:18:08.976Z,79.86
2018-11-03T09:19:08.967Z,79.80
2018-11-03T09:20:08.941Z,80.38
2018-11-03T09:21:08.957Z,79.97
2018-11-03T09:22:08.922Z,79.76
2018-11-03T09:23:08.915Z,80.04
2018-11-03T09:24:08.901Z,80.24
2018-11-03T09:25:08.887Z,80.04
2018-11-03T09:26:08.898Z,77.94
2018-11-03T09:27:08.865Z,78.04
2018-11-03T09:28:08.857Z,78.59
2018-11-03T09:29:08.849Z,78.66
2018-11-03T09:30:08.841Z,78.08
2018-11-03T09:31:08.846Z,78.14
2018-11-03T09:32:08.809Z,78.86
2018-11-03T09:33:08.808Z,77.83
2018-11-03T09:34:08.787Z,78.86
2018-11-03T09:35:08.802Z,78.24
2018-11-03T09:36:08.797Z,77.73
2018-11-03T09:37:08.752Z,77.52
2018-11-03T09:38:08.747Z,77.59
2018-11-03T09:39:08.806Z,77.59
2018-11-03T09:40:08.723Z,77.38
2018-11-03T09:41:08.760Z,77.28
2018-11-03T09:42:08.697Z,77.18
2018-11-03T09:43:08.704Z,77.28
2018-11-03T09:44:08.685Z,77.48
2018-11-03T09:45:08.679Z,76.04
2018-11-03T09:46:08.689Z,75.43
2018-11-03T09:47:08.642Z,76.56
2018-11-03T09:48:08.636Z,77.08
2018-11-03T09:49:08.627Z,77.04
2018-11-03T09:50:08.609Z,77.18
2018-11-03T09:51:08.714Z,77.14
2018-11-03T09:52:08.585Z,77.35
2018-11-03T09:53:08.583Z,77.69
2018-11-03T09:54:08.571Z,77.45
2018-11-03T09:55:08.556Z,77.45
2018-11-03T09:56:08.568Z,76.42
2018-11-03T09:57:08.551Z,76.11
2018-11-03T09:58:08.521Z,76.73
2018-11-03T09:59:08.567Z,76.11
2018-11-03T10:00:08.500Z,75.70
2018-11-03T10:01:08.547Z,75.35
2018-11-03T10:02:08.478Z,75.39
2018-11-03T10:03:08.466Z,75.46
2018-11-03T10:04:08.471Z,75.08
2018-11-03T10:05:08.446Z,76.18
2018-11-03T10:06:08.435Z,76.53
2018-11-03T10:07:08.444Z,75.49
2018-11-03T10:08:08.412Z,75.25
2018-11-03T10:09:08.404Z,74.95
2018-11-03T10:10:08.389Z,75.39
2018-11-03T10:11:08.378Z,75.49
2018-11-03T10:12:08.389Z,75.49
2018-11-03T10:13:08.357Z,75.46
2018-11-03T10:14:08.343Z,74.95
2018-11-03T10:15:08.334Z,75.77
2018-11-03T10:16:08.370Z,75.25
2018-11-03T10:17:08.351Z,75.56
2018-11-03T10:18:08.298Z,75.25
2018-11-03T10:19:08.290Z,74.22
2018-11-03T10:20:08.278Z,75.46
2018-11-03T10:21:08.267Z,75.15
2018-11-03T10:22:08.349Z,74.84
2018-11-03T10:23:08.285Z,75.32
2018-11-03T10:24:08.257Z,75.73
2018-11-03T10:25:08.226Z,75.22
2018-11-03T10:26:08.224Z,75.01
2018-11-03T10:27:08.224Z,74.50
2018-11-03T10:28:08.194Z,73.68
2018-11-03T10:29:08.178Z,74.60
2018-11-03T10:30:08.169Z,75.49
2018-11-03T10:31:08.157Z,74.57
2018-11-03T10:32:08.169Z,74.60
2018-11-03T10:33:08.142Z,74.91
2018-11-03T10:34:08.123Z,74.67
2018-11-03T10:35:08.118Z,74.67
2018-11-03T10:36:08.100Z,74.87
2018-11-03T10:37:08.115Z,74.36
2018-11-03T10:38:08.077Z,74.05
2018-11-03T10:39:08.065Z,73.64
2018-11-03T10:40:08.059Z,73.19
2018-11-03T10:41:08.042Z,73.30
2018-11-03T10:42:08.132Z,73.09
2018-11-03T10:43:08.023Z,73.81
2018-11-03T10:44:08.022Z,74.22
2018-11-03T10:45:08.001Z,73.81
2018-11-03T10:46:08.023Z,73.68
2018-11-03T10:47:08.003Z,73.47
2018-11-03T10:48:07.971Z,73.36
2018-11-03T10:49:07.954Z,72.75
2018-11-03T10:50:07.981Z,71.89
2018-11-03T10:51:07.934Z,72.10
2018-11-03T10:52:08.023Z,72.24
2018-11-03T10:53:07.919Z,72.41
2018-11-03T10:54:07.900Z,72.51
2018-11-03T10:55:07.894Z,72.82
2018-11-03T10:56:07.880Z,71.45
2018-11-03T10:57:07.889Z,71.17
2018-11-03T10:58:07.889Z,70.42
2018-11-03T10:59:07.857Z,70.42
2018-11-03T11:00:07.838Z,70.42
2018-11-03T11:01:07.823Z,70.32
2018-11-03T11:02:07.841Z,70.63
2018-11-03T11:03:07.800Z,70.29
2018-11-03T11:04:07.798Z,70.39
2018-11-03T11:05:07.790Z,70.70
2018-11-03T11:06:07.765Z,70.60
2018-11-03T11:07:07.778Z,69.37
2018-11-03T11:08:07.745Z,69.64
2018-11-03T11:09:07.743Z,70.36
2018-11-03T11:10:07.724Z,70.05
2018-11-03T11:11:07.712Z,69.13
2018-11-03T11:12:07.768Z,68.51
2018-11-03T11:13:07.685Z,67.97
2018-11-03T11:14:07.706Z,68.41
2018-11-03T11:15:07.664Z,69.30
2018-11-03T11:16:07.709Z,69.92
2018-11-03T11:17:07.731Z,69.30
2018-11-03T11:18:07.644Z,68.65
2018-11-03T11:19:07.620Z,67.73
2018-11-03T11:20:07.614Z,67.52
2018-11-03T11:21:07.605Z,67.43
2018-11-03T11:22:07.610Z,66.81
2018-11-03T11:23:07.613Z,66.27
2018-11-03T11:24:07.698Z,66.57
2018-11-03T11:25:07.685Z,65.55
2018-11-03T11:26:07.546Z,65.34
2018-11-03T11:27:07.554Z,65.45
2018-11-03T11:28:07.525Z,65.75
2018-11-03T11:29:07.508Z,65.45
2018-11-03T11:30:07.511Z,65.52
2018-11-03T11:31:07.514Z,63.47
2018-11-03T11:32:07.504Z,62.55
2018-11-03T11:33:07.465Z,62.96
2018-11-03T11:34:07.460Z,62.24
2018-11-03T11:35:07.441Z,61.73
2018-11-03T11:36:07.437Z,62.42
2018-11-03T11:37:07.420Z,60.17
2018-11-03T11:38:07.434Z,59.38
2018-11-03T11:39:07.405Z,58.45
2018-11-03T11:40:07.394Z,59.04
2018-11-03T11:41:07.391Z,58.04
2018-11-03T11:42:07.366Z,58.33
2018-11-03T11:43:07.477Z,58.45
2018-11-03T11:44:07.344Z,59.38
2018-11-03T11:45:07.332Z,60.37
2018-11-03T11:46:07.328Z,60.99
2018-11-03T11:47:07.313Z,60.58
2018-11-03T11:48:07.328Z,59.86
2018-11-03T11:49:07.299Z,59.76
2018-11-03T11:50:07.276Z,59.25
2018-11-03T11:51:07.280Z,59.04
2018-11-03T11:52:07.253Z,58.12
2018-11-03T11:53:07.273Z,58.94
2018-11-03T11:54:07.234Z,60.17
2018-11-03T11:55:07.338Z,60.58
2018-11-03T11:56:07.241Z,59.86
2018-11-03T11:57:07.222Z,60.17
2018-11-03T11:58:07.239Z,59.66
2018-11-03T11:59:07.174Z,59.76
2018-11-03T12:00:07.167Z,59.76
2018-11-03T12:01:07.152Z,59.25
2018-11-03T12:02:07.197Z,58.84
2018-11-03T12:03:07.155Z,59.66
2018-11-03T12:04:07.148Z,59.86
2018-11-03T12:05:07.110Z,59.73
2018-11-03T12:06:07.100Z,60.06
2018-11-03T12:07:07.085Z,59.53
2018-11-03T12:08:07.102Z,60.44
2018-11-03T12:09:07.068Z,60.78
2018-11-03T12:10:07.129Z,60.35
2018-11-03T12:11:07.039Z,60.65
2018-11-03T12:12:07.048Z,61.26
2018-11-03T12:13:07.040Z,60.06
2018-11-03T12:14:07.008Z,61.06
2018-11-03T12:15:07.003Z,61.57
2018-11-03T12:16:07.042Z,61.98
2018-11-03T12:17:06.973Z,61.60
2018-11-03T12:18:07.002Z,61.91
2018-11-03T12:19:06.952Z,61.50
2018-11-03T12:20:06.956Z,60.44
2018-11-03T12:21:06.930Z,60.78
2018-11-03T12:22:06.917Z,61.88
2018-11-03T12:23:06.946Z,61.98
2018-11-03T12:24:06.894Z,61.06
2018-11-03T12:25:06.884Z,60.96
2018-11-03T12:26:06.875Z,60.03
2018-11-03T12:27:06.862Z,60.75
2018-11-03T12:28:06.872Z,59.76
2018-11-03T12:29:06.844Z,59.76
2018-11-03T12:30:06.830Z,59.42
2018-11-03T12:31:06.828Z,60.35
2018-11-03T12:32:06.810Z,60.44
2018-11-03T12:33:06.818Z,60.55
2018-11-03T12:34:06.804Z,60.14
2018-11-03T12:35:06.771Z,60.75
2018-11-03T12:36:06.761Z,60.75
2018-11-03T12:37:06.760Z,62.29
2018-11-03T12:38:06.761Z,60.75
2018-11-03T12:39:06.726Z,59.53
2018-11-03T12:40:06.722Z,60.24
2018-11-03T12:41:06.710Z,60.96
2018-11-03T12:42:06.694Z,60.24
2018-11-03T12:43:06.713Z,60.14
2018-11-03T12:44:06.670Z,59.83
2018-11-03T12:45:06.659Z,59.22
2018-11-03T12:46:06.657Z,60.14
2018-11-03T12:47:06.637Z,59.63
2018-11-03T12:48:06.794Z,58.81
2018-11-03T12:49:06.623Z,59.42
2018-11-03T12:50:06.608Z,59.22
2018-11-03T12:51:06.596Z,60.31
2018-11-03T12:52:06.584Z,60.03